Time;durP1;ratioP1;P1;durP2;ratioP2;P2;SDS_P1;SDS_P2;PMS_P1;PMS_P2;Temp;Humidity;BMP_temperature;BMP_pressure;BME280_temperature;BME280_humidity;BME280_pressure;Samples;Min_cycle;Max_cycle;Signal;HPM_P1;HPM_P2
2022/10/20 03:01:58;;;;;;;11.82;5.15;;;7.40;99.90;;;;;;6255976;22;20064;-77
2022/10/20 03:04:23;;;;;;;14.30;5.18;;;7.40;99.90;;;;;;6277403;22;20505;-81
2022/10/20 03:06:49;;;;;;;12.68;5.25;;;7.40;99.90;;;;;;6277957;22;20011;-79
2022/10/20 03:09:15;;;;;;;10.90;5.05;;;7.40;99.90;;;;;;6250318;22;20015;-78
2022/10/20 03:11:41;;;;;;;13.63;5.57;;;7.40;99.90;;;;;;6277511;22;20011;-76
2022/10/20 03:14:06;;;;;;;10.77;5.15;;;7.30;99.90;;;;;;6277548;22;20008;-80
2022/10/20 03:16:32;;;;;;;9.75;4.95;;;7.30;99.90;;;;;;6224630;22;20349;-80
2022/10/20 03:18:58;;;;;;;12.90;5.40;;;7.30;99.90;;;;;;6277674;22;20018;-80
2022/10/20 03:21:23;;;;;;;10.38;5.53;;;7.30;99.90;;;;;;6251158;22;20012;-74
2022/10/20 03:23:49;;;;;;;10.40;5.38;;;7.30;99.90;;;;;;6252641;22;20394;-77
2022/10/20 03:26:14;;;;;;;11.32;5.70;;;7.30;99.90;;;;;;6252453;22;20026;-83
2022/10/20 03:28:40;;;;;;;9.80;6.05;;;7.20;99.90;;;;;;6279442;22;20018;-79
2022/10/20 03:31:07;;;;;;;17.25;7.53;;;7.20;99.90;;;;;;6279786;22;20046;-79
2022/10/20 03:33:32;;;;;;;12.80;6.43;;;7.20;99.90;;;;;;6252249;22;20083;-81
2022/10/20 03:35:58;;;;;;;9.77;6.05;;;7.30;99.90;;;;;;6251958;22;20395;-79
2022/10/20 03:38:23;;;;;;;12.57;5.75;;;7.20;99.90;;;;;;6252096;22;20011;-78
2022/10/20 03:40:50;;;;;;;12.00;6.20;;;7.20;99.90;;;;;;6251741;22;20437;-76
2022/10/20 03:43:15;;;;;;;11.68;6.70;;;7.20;99.90;;;;;;6252041;22;20024;-79
2022/10/20 03:45:42;;;;;;;12.50;6.22;;;7.20;99.90;;;;;;6252121;22;20548;-79
2022/10/20 03:48:09;;;;;;;11.20;6.22;;;7.20;99.90;;;;;;6252063;22;20012;-80
2022/10/20 03:50:37;;;;;;;13.10;6.30;;;7.20;99.90;;;;;;6252008;22;20016;-77
2022/10/20 03:53:03;;;;;;;11.50;6.20;;;7.20;99.90;;;;;;6252261;22;20012;-77
2022/10/20 03:55:29;;;;;;;12.43;6.18;;;7.20;99.90;;;;;;6252159;22;20042;-80
2022/10/20 03:57:54;;;;;;;14.43;6.60;;;7.20;99.90;;;;;;6279505;22;20008;-78
2022/10/20 04:00:20;;;;;;;11.57;6.65;;;7.20;99.90;;;;;;6252040;22;20071;-79
2022/10/20 04:02:46;;;;;;;14.20;6.50;;;7.20;99.90;;;;;;6279624;22;20012;-77
2022/10/20 04:05:15;;;;;;;19.30;6.93;;;7.20;99.90;;;;;;6279244;22;20350;-76
2022/10/20 04:07:40;;;;;;;17.52;6.65;;;7.20;99.90;;;;;;6251516;22;20019;-76
2022/10/20 04:10:07;;;;;;;15.00;6.97;;;7.20;99.90;;;;;;6251960;22;20015;-81
2022/10/20 04:12:33;;;;;;;13.75;7.15;;;7.20;99.90;;;;;;6251885;22;20083;-75
2022/10/20 04:14:58;;;;;;;12.02;6.70;;;7.20;99.90;;;;;;6252002;22;20358;-76
2022/10/20 04:17:24;;;;;;;13.00;7.43;;;7.20;99.90;;;;;;6251916;22;20043;-79
2022/10/20 04:19:49;;;;;;;13.68;7.78;;;7.20;99.90;;;;;;6279173;22;20087;-77
2022/10/20 04:22:15;;;;;;;12.38;7.15;;;7.20;99.90;;;;;;6251538;22;20046;-78
2022/10/20 04:24:41;;;;;;;14.27;7.47;;;7.20;99.90;;;;;;6279006;22;20003;-79
2022/10/20 04:27:06;;;;;;;15.27;7.88;;;7.20;99.90;;;;;;6278842;22;20065;-85
2022/10/20 04:29:32;;;;;;;16.15;7.25;;;7.20;99.90;;;;;;6251278;22;20378;-78
2022/10/20 04:31:58;;;;;;;25.55;8.90;;;7.20;99.90;;;;;;6251248;22;20376;-80
2022/10/20 04:34:23;;;;;;;15.60;8.27;;;7.20;99.90;;;;;;6252056;22;20353;-79
2022/10/20 04:36:49;;;;;;;15.05;7.57;;;7.20;99.90;;;;;;6251951;22;20023;-76
2022/10/20 04:39:15;;;;;;;14.60;7.97;;;7.20;99.90;;;;;;6279515;22;20015;-79
2022/10/20 04:41:41;;;;;;;14.10;6.22;;;7.10;99.90;;;;;;6251574;22;20043;-82
2022/10/20 04:44:06;;;;;;;11.90;6.22;;;7.20;99.90;;;;;;6251911;22;20022;-80
2022/10/20 04:46:32;;;;;;;13.55;6.30;;;7.10;99.90;;;;;;6279317;22;20082;-81
2022/10/20 04:48:58;;;;;;;14.75;7.25;;;7.20;99.90;;;;;;6251430;22;20035;-81
2022/10/20 04:51:23;;;;;;;12.25;7.55;;;7.20;99.90;;;;;;6251632;22;20015;-78
2022/10/20 04:53:49;;;;;;;18.75;7.68;;;7.20;99.90;;;;;;6251358;22;20090;-79
2022/10/20 04:56:18;;;;;;;14.07;6.68;;;7.10;99.90;;;;;;6251616;22;20021;-79
2022/10/20 04:58:51;;;;;;;12.90;7.30;;;7.20;99.90;;;;;;6277788;22;20047;-80
2022/10/20 05:01:18;;;;;;;12.40;6.40;;;7.10;99.90;;;;;;6249844;22;20050;-80
2022/10/20 05:03:43;;;;;;;11.75;6.65;;;7.20;99.90;;;;;;6225187;22;20034;-78
2022/10/20 05:06:16;;;;;;;16.75;7.80;;;7.10;99.90;;;;;;6250242;22;20011;-80
2022/10/20 05:08:45;;;;;;;13.90;7.22;;;7.10;99.90;;;;;;6250133;22;20011;-78
2022/10/20 05:11:12;;;;;;;17.92;7.38;;;7.10;99.90;;;;;;6249910;22;20507;-79
2022/10/20 05:13:38;;;;;;;15.43;7.78;;;7.10;99.90;;;;;;6277108;22;20059;-78
2022/10/20 05:16:04;;;;;;;17.80;8.10;;;7.10;99.90;;;;;;6249989;22;20341;-76
2022/10/20 05:18:31;;;;;;;16.15;7.38;;;7.10;99.90;;;;;;6250053;22;20026;-81
2022/10/20 05:20:57;;;;;;;13.98;7.50;;;7.10;99.90;;;;;;6224863;22;20452;-80
2022/10/20 05:23:23;;;;;;;16.75;7.97;;;7.10;99.90;;;;;;6277084;22;20011;-77
2022/10/20 05:25:49;;;;;;;14.63;7.90;;;7.10;99.90;;;;;;6249532;22;20341;-79
2022/10/20 05:28:14;;;;;;;19.42;8.20;;;7.10;99.90;;;;;;6249898;22;20015;-78
2022/10/20 05:30:40;;;;;;;18.08;8.30;;;7.10;99.90;;;;;;6276912;22;20558;-79
2022/10/20 05:33:05;;;;;;;17.05;8.68;;;7.10;99.90;;;;;;6249946;22;20046;-79
2022/10/20 05:35:31;;;;;;;16.30;8.57;;;7.10;99.90;;;;;;6249938;22;20326;-81
2022/10/20 05:37:57;;;;;;;15.38;8.50;;;7.20;99.90;;;;;;6249616;22;20047;-80
2022/10/20 05:40:23;;;;;;;18.65;8.48;;;7.10;99.90;;;;;;6249683;22;20326;-81
2022/10/20 05:42:49;;;;;;;14.65;8.85;;;7.10;99.90;;;;;;6250090;22;20011;-76
2022/10/20 05:45:15;;;;;;;16.38;8.35;;;7.10;99.90;;;;;;6251342;22;20016;-79
2022/10/20 05:47:43;;;;;;;16.17;8.30;;;7.10;99.90;;;;;;6248596;22;20012;-76
2022/10/20 05:50:09;;;;;;;17.58;9.00;;;7.10;99.90;;;;;;6277213;22;20073;-77
2022/10/20 05:52:35;;;;;;;15.75;9.07;;;7.10;99.90;;;;;;6278650;22;20019;-83
2022/10/20 05:55:02;;;;;;;18.05;8.95;;;7.10;99.90;;;;;;6250889;22;20012;-80
2022/10/20 05:57:28;;;;;;;18.08;9.13;;;7.10;99.90;;;;;;6249918;22;20022;-79
2022/10/20 05:59:54;;;;;;;23.33;10.05;;;7.10;99.90;;;;;;6276349;22;20452;-76
2022/10/20 06:02:20;;;;;;;13.20;6.60;;;7.00;99.90;;;;;;6248689;22;20441;-74
2022/10/20 06:04:45;;;;;;;11.98;6.55;;;7.10;99.90;;;;;;6224980;22;20020;-76
2022/10/20 06:07:11;;;;;;;16.92;7.35;;;7.10;99.90;;;;;;6250414;22;20018;-77
2022/10/20 06:09:38;;;;;;;14.75;7.63;;;7.10;99.90;;;;;;6277356;22;20433;-75
2022/10/20 06:12:04;;;;;;;16.17;6.95;;;7.10;99.90;;;;;;6277404;22;20018;-77
2022/10/20 06:14:30;;;;;;;16.25;7.38;;;7.10;99.90;;;;;;6224801;22;20319;-75
2022/10/20 06:16:56;;;;;;;15.07;6.80;;;7.10;99.90;;;;;;6250848;22;20030;-75
2022/10/20 06:19:23;;;;;;;15.48;7.10;;;7.00;99.90;;;;;;6224665;22;20065;-75
2022/10/20 06:21:49;;;;;;;17.17;7.30;;;7.10;99.90;;;;;;6277423;22;20023;-77
2022/10/20 06:24:15;;;;;;;14.75;7.35;;;7.10;99.90;;;;;;6249915;22;20019;-78
2022/10/20 06:26:42;;;;;;;18.30;7.72;;;7.10;99.90;;;;;;6249904;22;20051;-76
2022/10/20 06:29:14;;;;;;;18.73;7.90;;;7.10;99.90;;;;;;6277656;22;20295;-77
2022/10/20 06:31:45;;;;;;;15.32;7.28;;;7.10;99.90;;;;;;6277038;22;20064;-77
2022/10/20 06:34:22;;;;;;;18.52;8.02;;;7.10;99.90;;;;;;6251057;22;20043;-78
2022/10/20 06:36:48;;;;;;;14.20;7.25;;;7.20;99.90;;;;;;6250031;22;20471;-75
2022/10/20 06:39:19;;;;;;;16.45;7.40;;;7.20;99.90;;;;;;6250177;22;20007;-76
2022/10/20 06:41:51;;;;;;;16.98;7.82;;;7.20;99.90;;;;;;6250183;22;20019;-75
2022/10/20 06:44:18;;;;;;;16.55;7.53;;;7.20;99.90;;;;;;6250035;22;20070;-75
2022/10/20 06:46:44;;;;;;;12.25;4.80;;;7.20;99.90;;;;;;6224902;22;20019;-76
2022/10/20 06:49:10;;;;;;;11.60;5.18;;;7.30;99.90;;;;;;6249816;22;20016;-76
2022/10/20 06:51:36;;;;;;;14.02;5.80;;;7.30;99.90;;;;;;6249742;22;20019;-74
2022/10/20 06:54:03;;;;;;;13.10;5.95;;;7.30;99.90;;;;;;6277468;22;20302;-76
2022/10/20 06:56:31;;;;;;;13.85;6.18;;;7.30;99.90;;;;;;6249237;22;20019;-74
2022/10/20 06:58:58;;;;;;;12.80;5.25;;;7.30;99.90;;;;;;6251085;22;20101;-74
2022/10/20 07:01:23;;;;;;;10.88;4.85;;;7.30;99.90;;;;;;6250116;22;20023;-76
2022/10/20 07:03:52;;;;;;;18.73;5.70;;;7.30;99.90;;;;;;6224976;22;20041;-77
2022/10/20 07:06:25;;;;;;;10.70;5.07;;;7.40;99.90;;;;;;6224293;22;20022;-77
2022/10/20 07:08:52;;;;;;;11.13;5.45;;;7.40;99.90;;;;;;6276760;22;20511;-76
2022/10/20 07:11:20;;;;;;;12.10;5.82;;;7.40;99.90;;;;;;6249514;22;20007;-76
2022/10/20 07:13:47;;;;;;;12.75;5.85;;;7.40;99.90;;;;;;6250277;22;20016;-75
2022/10/20 07:16:16;;;;;;;11.50;5.07;;;7.40;99.90;;;;;;6250532;22;20011;-75
2022/10/20 07:18:42;;;;;;;12.05;5.57;;;7.40;99.90;;;;;;6277202;22;20011;-75
2022/10/20 07:21:13;;;;;;;10.45;4.95;;;7.50;99.90;;;;;;6249822;22;20044;-74
2022/10/20 07:23:39;;;;;;;11.20;4.72;;;7.50;99.90;;;;;;6277686;22;20050;-78
2022/10/20 07:26:14;;;;;;;17.42;5.55;;;7.50;99.90;;;;;;6277024;22;20083;-74
2022/10/20 07:28:42;;;;;;;14.30;5.95;;;7.60;99.90;;;;;;6249381;22;20368;-79
2022/10/20 07:31:12;;;;;;;12.50;5.70;;;7.60;99.90;;;;;;6249390;22;20016;-77
2022/10/20 07:33:37;;;;;;;12.32;5.70;;;7.60;99.90;;;;;;6249314;22;20008;-77
2022/10/20 07:36:20;;;;;;;13.38;6.13;;;7.70;99.90;;;;;;6249412;22;20121;-76
2022/10/20 07:38:47;;;;;;;13.65;5.32;;;7.70;99.90;;;;;;6249401;22;20019;-75
2022/10/20 07:41:13;;;;;;;12.18;5.18;;;7.70;99.90;;;;;;6249399;22;20034;-80
2022/10/20 07:43:39;;;;;;;12.30;5.05;;;7.80;99.90;;;;;;6276575;22;20449;-77
2022/10/20 07:46:06;;;;;;;15.00;5.45;;;7.80;99.90;;;;;;6249296;22;20051;-76
2022/10/20 07:48:32;;;;;;;9.93;4.72;;;7.90;99.90;;;;;;6249527;22;20103;-78
2022/10/20 07:51:13;;;;;;;15.13;5.68;;;7.90;99.90;;;;;;6249473;22;20016;-76
2022/10/20 07:53:39;;;;;;;14.38;5.45;;;7.90;99.90;;;;;;6249660;22;20012;-79
2022/10/20 07:56:04;;;;;;;11.52;5.05;;;8.00;99.90;;;;;;6224561;22;20012;-79
2022/10/20 07:58:30;;;;;;;16.73;5.28;;;8.10;99.90;;;;;;6249364;22;20432;-74
2022/10/20 08:00:56;;;;;;;19.52;5.72;;;8.10;99.90;;;;;;6276425;22;20018;-75
2022/10/20 08:03:21;;;;;;;13.18;5.40;;;8.10;99.90;;;;;;6249790;22;20007;-75
2022/10/20 08:05:47;;;;;;;12.77;5.30;;;8.20;99.90;;;;;;6249633;22;20007;-75
2022/10/20 08:08:12;;;;;;;11.13;4.78;;;8.20;99.90;;;;;;6251468;22;20015;-77
2022/10/20 08:10:38;;;;;;;11.82;4.70;;;8.20;99.90;;;;;;6278318;22;20011;-75
2022/10/20 08:13:04;;;;;;;11.48;5.18;;;8.30;99.90;;;;;;6251500;22;20042;-75
2022/10/20 08:15:29;;;;;;;11.63;4.93;;;8.40;99.90;;;;;;6278681;22;20015;-78
2022/10/20 08:17:55;;;;;;;10.93;5.28;;;8.40;99.90;;;;;;6251447;22;20019;-79
2022/10/20 08:20:21;;;;;;;11.63;5.28;;;8.40;99.90;;;;;;6278710;22;20007;-76
2022/10/20 08:22:46;;;;;;;13.20;5.30;;;8.50;99.90;;;;;;6251528;22;20058;-77
2022/10/20 08:25:16;;;;;;;11.35;5.47;;;8.50;99.90;;;;;;6251249;22;20015;-76
2022/10/20 08:27:42;;;;;;;11.85;5.28;;;8.60;99.90;;;;;;6251471;22;20016;-78
2022/10/20 08:30:08;;;;;;;13.93;4.65;;;8.60;99.90;;;;;;6251563;22;20085;-77
2022/10/20 08:32:34;;;;;;;13.13;5.03;;;8.70;99.90;;;;;;6252276;22;20479;-76
2022/10/20 08:34:59;;;;;;;12.57;5.05;;;8.70;99.90;;;;;;6251456;22;20012;-77
2022/10/20 08:37:25;;;;;;;13.98;6.45;;;8.80;99.90;;;;;;6251474;22;20456;-76
2022/10/20 08:39:50;;;;;;;12.32;5.47;;;8.80;99.90;;;;;;6251162;22;20137;-77
2022/10/20 08:42:17;;;;;;;10.20;4.82;;;8.90;99.90;;;;;;6251311;22;20019;-74
2022/10/20 08:44:45;;;;;;;10.10;5.00;;;9.00;99.90;;;;;;6251394;22;20433;-74
2022/10/20 08:47:33;;;;;;;11.27;5.07;;;9.00;99.90;;;;;;6250894;22;20368;-78
2022/10/20 08:50:01;;;;;;;12.18;5.53;;;9.10;99.90;;;;;;6251086;22;20015;-75
2022/10/20 08:52:27;;;;;;;10.70;4.80;;;9.20;99.90;;;;;;6225426;22;20016;-74
2022/10/20 08:54:55;;;;;;;16.08;6.28;;;9.40;99.90;;;;;;6251088;22;20053;-78
2022/10/20 08:57:30;;;;;;;10.70;5.28;;;9.40;99.90;;;;;;6278504;22;20003;-76
2022/10/20 09:00:12;;;;;;;10.10;4.90;;;9.40;99.90;;;;;;6251151;22;20512;-78
2022/10/20 09:02:39;;;;;;;13.35;6.85;;;9.40;99.90;;;;;;6225320;22;20019;-75
2022/10/20 09:05:06;;;;;;;14.57;6.68;;;9.40;99.90;;;;;;6251161;22;20022;-74
2022/10/20 09:07:37;;;;;;;14.73;7.03;;;9.50;99.90;;;;;;6278603;22;20030;-74
2022/10/20 09:10:23;;;;;;;17.55;7.40;;;9.50;99.90;;;;;;6250952;22;20524;-76
2022/10/20 09:12:49;;;;;;;;;;;9.50;99.90;;;;;;6230403;22;20023;-75
2022/10/20 09:15:16;;;;;;;;;;;9.50;99.90;;;;;;6225986;22;20219;-73
2022/10/20 09:18:10;;;;;;;14.95;7.20;;;9.50;99.90;;;;;;6278041;22;20313;-74
2022/10/20 09:20:52;;;;;;;14.48;7.05;;;9.50;99.90;;;;;;6244369;22;20012;-79
2022/10/20 09:23:30;;;;;;;15.23;7.20;;;9.60;99.90;;;;;;6278207;22;20019;-78
2022/10/20 09:25:55;;;;;;;15.45;6.90;;;9.70;99.90;;;;;;6250690;22;20015;-76
2022/10/20 09:28:25;;;;;;;15.82;7.70;;;9.70;99.90;;;;;;6250458;22;20016;-78
2022/10/20 09:30:51;;;;;;;12.90;7.28;;;9.80;99.90;;;;;;6250379;22;20449;-77
2022/10/20 09:33:29;;;;;;;13.75;6.82;;;10.00;99.90;;;;;;6250416;22;20019;-77
2022/10/20 09:36:11;;;;;;;14.20;7.82;;;10.20;99.90;;;;;;6277734;22;20008;-73
2022/10/20 09:38:42;;;;;;;13.68;7.15;;;10.40;99.90;;;;;;6282665;22;20015;-75
2022/10/20 09:41:13;;;;;;;16.48;8.18;;;10.50;99.90;;;;;;6283815;22;20018;-73
2022/10/20 09:43:46;;;;;;;30.52;8.60;;;10.80;99.90;;;;;;6225799;22;20011;-74
2022/10/20 09:46:19;;;;;;;10.95;6.60;;;10.90;99.90;;;;;;6225717;22;20016;-77
2022/10/20 09:48:47;;;;;;;14.35;7.50;;;11.00;99.90;;;;;;6250454;22;20011;-75
2022/10/20 09:51:18;;;;;;;12.00;7.03;;;11.00;99.90;;;;;;6250143;22;20043;-78
2022/10/20 09:54:06;;;;;;;14.10;6.03;;;11.10;99.90;;;;;;6251291;22;20383;-75
2022/10/20 09:56:37;;;;;;;12.40;6.65;;;11.10;99.90;;;;;;6277720;22;20007;-77
2022/10/20 09:59:18;;;;;;;13.45;7.00;;;11.20;99.90;;;;;;6225135;22;20015;-77
2022/10/20 10:01:54;;;;;;;14.43;6.43;;;11.30;99.90;;;;;;6277419;22;20018;-76
2022/10/20 10:04:38;;;;;;;10.82;6.13;;;11.40;99.90;;;;;;6250109;22;20445;-78
2022/10/20 10:07:24;;;;;;;14.60;6.55;;;11.50;99.90;;;;;;6251192;22;20035;-75
2022/10/20 10:09:56;;;;;;;11.52;5.95;;;11.50;99.90;;;;;;6276536;22;20008;-76
2022/10/20 10:12:24;;;;;;;10.02;6.00;;;11.70;99.90;;;;;;6277342;22;20015;-75
2022/10/20 10:15:22;;;;;;;11.45;6.65;;;11.90;99.90;;;;;;6277454;22;20082;-75
2022/10/20 10:17:49;;;;;;;11.25;6.65;;;12.00;99.90;;;;;;6277734;22;20027;-74
2022/10/20 10:20:18;;;;;;;13.90;6.28;;;12.30;99.90;;;;;;6277801;22;20089;-75
2022/10/20 10:22:43;;;;;;;12.05;5.85;;;12.30;99.90;;;;;;6249995;22;20344;-75
2022/10/20 10:25:18;;;;;;;13.30;6.18;;;12.40;99.90;;;;;;6249858;22;20043;-77
2022/10/20 10:28:16;;;;;;;11.23;6.30;;;12.50;99.90;;;;;;6250250;22;20016;-77
2022/10/20 10:30:42;;;;;;;11.35;7.13;;;12.50;99.90;;;;;;6248611;22;20037;-76
2022/10/20 10:33:28;;;;;;;15.43;6.50;;;12.60;99.90;;;;;;6249965;22;20079;-78
2022/10/20 10:35:54;;;;;;;9.85;6.10;;;12.70;99.90;;;;;;6249945;22;20468;-78
2022/10/20 10:38:20;;;;;;;10.05;6.45;;;12.80;99.90;;;;;;6249652;22;20016;-77
2022/10/20 10:40:52;;;;;;;12.15;6.50;;;12.80;99.90;;;;;;6249599;22;20012;-72
2022/10/20 10:43:38;;;;;;;13.38;6.78;;;12.80;99.90;;;;;;6249616;22;20023;-75
2022/10/20 10:46:19;;;;;;;13.32;6.28;;;12.80;99.90;;;;;;6249524;22;20023;-76
2022/10/20 10:49:03;;;;;;;12.55;6.82;;;12.70;99.90;;;;;;6249651;22;20318;-77
2022/10/20 10:51:35;;;;;;;12.85;6.82;;;12.80;99.90;;;;;;6249551;22;20020;-74
2022/10/20 10:54:23;;;;;;;11.02;6.15;;;12.70;99.90;;;;;;6249799;22;20337;-77
2022/10/20 10:56:50;;;;;;;11.30;6.60;;;12.60;99.90;;;;;;6277171;22;20003;-74
2022/10/20 10:59:18;;;;;;;10.63;6.40;;;12.60;99.90;;;;;;6249612;22;20432;-74
2022/10/20 11:01:59;;;;;;;19.05;7.85;;;12.60;99.90;;;;;;6249524;22;20344;-77
2022/10/20 11:04:27;;;;;;;13.80;8.57;;;12.60;99.90;;;;;;6277425;22;20352;-74
2022/10/20 11:07:08;;;;;;;12.85;7.65;;;12.60;99.90;;;;;;6224426;22;20086;-75
2022/10/20 11:09:58;;;;;;;15.48;8.50;;;12.50;99.90;;;;;;6249518;22;20020;-74
2022/10/20 11:12:44;;;;;;;16.38;8.80;;;12.50;99.90;;;;;;6249497;22;20087;-76
2022/10/20 11:15:41;;;;;;;13.60;8.02;;;12.40;99.90;;;;;;6189100;22;20011;-77
2022/10/20 11:18:28;;;;;;;12.93;8.52;;;12.40;99.90;;;;;;6249792;22;20491;-76
2022/10/20 11:21:11;;;;;;;16.75;8.75;;;12.40;99.90;;;;;;6277340;22;20065;-73
2022/10/20 11:23:46;;;;;;;14.65;8.55;;;12.30;99.90;;;;;;6276944;22;20012;-78
2022/10/20 11:26:30;;;;;;;15.77;8.40;;;12.30;99.90;;;;;;6249291;22;20437;-75
2022/10/20 11:28:57;;;;;;;14.18;8.50;;;12.20;99.90;;;;;;6224034;22;20449;-76
2022/10/20 11:31:53;;;;;;;14.55;8.25;;;12.20;99.90;;;;;;6249274;22;20044;-73
2022/10/20 11:34:49;;;;;;;13.48;8.65;;;12.20;99.90;;;;;;6275963;22;20008;-78
2022/10/20 11:37:14;;;;;;;15.93;8.73;;;12.20;99.90;;;;;;6249656;22;20051;-76
2022/10/20 11:39:46;;;;;;;12.35;8.27;;;12.20;99.90;;;;;;6249687;22;20027;-79
2022/10/20 11:42:41;;;;;;;13.63;8.85;;;12.20;99.90;;;;;;6250167;22;20047;-77
2022/10/20 11:45:25;;;;;;;14.73;8.18;;;12.20;99.90;;;;;;6278829;22;20011;-77
2022/10/20 11:48:00;;;;;;;16.65;9.02;;;12.20;99.90;;;;;;6226215;22;20016;-77
2022/10/20 11:50:26;;;;;;;14.77;8.40;;;12.20;99.90;;;;;;6252245;22;20015;-77
2022/10/20 11:52:59;;;;;;;15.93;9.32;;;12.30;99.90;;;;;;6252020;22;20023;-75
2022/10/20 11:55:24;;;;;;;15.43;8.95;;;12.30;99.90;;;;;;6251794;22;20016;-75
2022/10/20 11:57:59;;;;;;;13.27;8.43;;;12.20;99.90;;;;;;6251882;22;20515;-76
2022/10/20 12:00:31;;;;;;;17.20;9.05;;;12.20;99.90;;;;;;6251320;22;20019;-74
2022/10/20 12:03:21;;;;;;;15.80;8.70;;;12.20;99.90;;;;;;6251532;22;20424;-76
2022/10/20 12:06:23;;;;;;;16.23;9.00;;;12.20;99.90;;;;;;6251902;22;20020;-76
2022/10/20 12:08:58;;;;;;;14.07;8.85;;;12.10;99.90;;;;;;6278818;22;20004;-77
2022/10/20 12:11:39;;;;;;;16.88;9.90;;;12.10;99.90;;;;;;6251876;22;20051;-78
2022/10/20 12:14:25;;;;;;;14.27;8.77;;;12.10;99.90;;;;;;6251712;22;20016;-77
2022/10/20 12:16:51;;;;;;;19.08;10.00;;;12.10;99.90;;;;;;6278781;22;20039;-77
2022/10/20 12:19:28;;;;;;;14.50;9.13;;;12.10;99.90;;;;;;6278853;22;20027;-77
2022/10/20 12:21:58;;;;;;;16.60;9.52;;;12.10;99.90;;;;;;6252563;22;20020;-75
2022/10/20 12:25:03;;;;;;;16.10;9.50;;;12.10;99.90;;;;;;6251526;22;20022;-75
2022/10/20 12:27:29;;;;;;;15.70;9.15;;;12.00;99.90;;;;;;6165961;22;20015;-76
2022/10/20 12:29:56;;;;;;;14.65;9.40;;;12.00;99.90;;;;;;6251306;22;20364;-78
2022/10/20 12:32:24;;;;;;;18.17;10.05;;;12.00;99.90;;;;;;6278630;22;20475;-76
2022/10/20 12:34:54;;;;;;;18.13;10.82;;;12.00;99.90;;;;;;6251408;22;20342;-77
2022/10/20 12:37:23;;;;;;;17.17;10.07;;;12.00;99.90;;;;;;6251504;22;20460;-73
2022/10/20 12:39:50;;;;;;;18.27;10.27;;;11.90;99.90;;;;;;6251434;22;20018;-76
2022/10/20 12:42:35;;;;;;;16.90;10.70;;;11.90;99.90;;;;;;6278234;22;20436;-76
2022/10/20 12:45:07;;;;;;;22.07;11.03;;;11.90;99.90;;;;;;6279359;22;20004;-78
2022/10/20 12:47:35;;;;;;;20.30;10.18;;;11.90;99.90;;;;;;6276829;22;20265;-76
2022/10/20 12:50:09;;;;;;;21.38;11.38;;;11.90;99.90;;;;;;6278250;22;20011;-79
2022/10/20 12:52:37;;;;;;;19.15;11.13;;;11.90;99.90;;;;;;6250823;22;20083;-78
2022/10/20 12:55:12;;;;;;;17.75;10.77;;;11.90;99.90;;;;;;6250428;22;20090;-78
2022/10/20 12:57:43;;;;;;;21.40;11.83;;;11.80;99.90;;;;;;6251577;22;20034;-75
2022/10/20 13:00:18;;;;;;;20.20;11.70;;;11.80;99.90;;;;;;6226249;22;20373;-78
2022/10/20 13:02:52;;;;;;;20.57;11.27;;;11.80;99.90;;;;;;6251885;22;20094;-74
2022/10/20 13:05:17;;;;;;;21.83;11.38;;;11.80;99.90;;;;;;6226491;22;20027;-75
2022/10/20 13:07:49;;;;;;;20.80;11.93;;;11.80;99.90;;;;;;6251712;22;20011;-76
2022/10/20 13:10:27;;;;;;;22.23;11.65;;;11.70;99.90;;;;;;6251645;22;20315;-76
2022/10/20 13:13:02;;;;;;;27.55;15.38;;;11.80;99.90;;;;;;6252067;22;20121;-79
2022/10/20 13:15:37;;;;;;;24.83;14.20;;;11.70;99.90;;;;;;6279571;22;20008;-77
2022/10/20 13:18:12;;;;;;;24.83;15.93;;;11.70;99.90;;;;;;6251391;22;20341;-76
2022/10/20 13:20:47;;;;;;;24.73;15.98;;;11.70;99.90;;;;;;6251166;22;20029;-78
2022/10/20 13:23:15;;;;;;;25.77;16.43;;;11.70;99.90;;;;;;6251130;22;20018;-78
2022/10/20 13:25:45;;;;;;;25.13;16.00;;;11.70;99.90;;;;;;6278451;22;20267;-78
2022/10/20 13:28:22;;;;;;;28.08;16.65;;;11.70;99.90;;;;;;6251020;22;20015;-79
2022/10/20 13:31:12;;;;;;;27.30;16.42;;;11.70;99.90;;;;;;6250677;22;20062;-79
2022/10/20 13:34:03;;;;;;;29.40;16.88;;;11.70;99.90;;;;;;6278455;22;20015;-79
2022/10/20 13:36:51;;;;;;;24.42;16.13;;;11.70;99.90;;;;;;6278719;22;20271;-76
2022/10/20 13:39:53;;;;;;;30.38;17.33;;;11.70;99.90;;;;;;6251034;22;20375;-77
2022/10/20 13:42:39;;;;;;;28.13;17.23;;;11.60;99.90;;;;;;6159339;23;20072;-78
2022/10/20 13:45:20;;;;;;;28.00;18.50;;;11.60;99.90;;;;;;6244894;22;20015;-76
2022/10/20 13:48:09;;;;;;;31.85;17.85;;;11.60;99.90;;;;;;6278018;22;20369;-78
2022/10/20 13:50:39;;;;;;;31.80;17.85;;;11.60;99.90;;;;;;6250625;22;20011;-77
2022/10/20 13:53:24;;;;;;;30.52;18.67;;;11.60;99.90;;;;;;6277945;22;20007;-82
2022/10/20 13:55:58;;;;;;;34.22;19.50;;;11.60;99.90;;;;;;6252233;22;20321;-79
2022/10/20 13:58:24;;;;;;;31.27;18.73;;;11.60;99.90;;;;;;6225372;22;20025;-79
2022/10/20 14:01:03;;;;;;;36.03;20.20;;;11.60;99.90;;;;;;6225183;22;20087;-80
2022/10/20 14:03:31;;;;;;;38.38;19.55;;;11.60;99.90;;;;;;6250738;22;20012;-78
2022/10/20 14:05:58;;;;;;;37.22;20.27;;;11.60;99.90;;;;;;6251005;22;20026;-76
2022/10/20 14:08:24;;;;;;;36.33;20.88;;;11.60;99.90;;;;;;6250960;22;20008;-79
2022/10/20 14:10:57;;;;;;;36.88;20.85;;;11.70;99.90;;;;;;6250481;22;20007;-75
2022/10/20 14:13:27;;;;;;;37.25;21.10;;;11.70;99.90;;;;;;6250879;22;20016;-76
2022/10/20 14:15:58;;;;;;;38.28;20.67;;;11.70;99.90;;;;;;6278841;22;20018;-76
2022/10/20 14:18:31;;;;;;;41.50;21.95;;;11.70;99.90;;;;;;6278653;22;20074;-78
2022/10/20 14:21:03;;;;;;;39.03;21.88;;;11.70;99.90;;;;;;6278212;22;20329;-78
2022/10/20 14:23:34;;;;;;;41.38;22.05;;;11.80;99.90;;;;;;6277836;22;20008;-79
2022/10/20 14:26:02;;;;;;;36.33;21.92;;;11.80;99.90;;;;;;6250663;22;20012;-78
2022/10/20 14:28:31;;;;;;;44.90;22.95;;;11.80;99.90;;;;;;6250311;22;20349;-80
2022/10/20 14:30:58;;;;;;;40.38;22.80;;;11.80;99.90;;;;;;6225316;22;20086;-76
2022/10/20 14:33:24;;;;;;;41.20;22.90;;;11.80;99.90;;;;;;6277565;22;20014;-75
2022/10/20 14:35:52;;;;;;;47.08;23.42;;;11.90;99.90;;;;;;6250174;22;20016;-75
2022/10/20 14:38:34;;;;;;;45.70;24.00;;;11.90;99.90;;;;;;6278525;22;20012;-79
2022/10/20 14:41:00;;;;;;;46.40;24.23;;;11.90;99.90;;;;;;6250141;22;20008;-78
2022/10/20 14:43:39;;;;;;;48.42;24.67;;;11.90;99.90;;;;;;6250127;22;20386;-79
2022/10/20 14:46:08;;;;;;;51.50;23.38;;;11.90;99.90;;;;;;6250183;22;20052;-78
2022/10/20 14:48:43;;;;;;;51.30;26.17;;;11.90;99.90;;;;;;6250378;22;20057;-79
2022/10/20 14:51:34;;;;;;;54.17;24.65;;;11.90;99.90;;;;;;6277506;22;20396;-78
2022/10/20 14:54:18;;;;;;;51.10;24.55;;;11.90;99.90;;;;;;6240209;22;20019;-80
2022/10/20 14:56:46;;;;;;;51.72;25.02;;;11.90;99.90;;;;;;6250407;22;20022;-80
2022/10/20 14:59:17;;;;;;;52.63;26.60;;;11.90;99.90;;;;;;6250571;22;20043;-80
2022/10/20 15:02:00;;;;;;;46.13;25.17;;;11.90;99.90;;;;;;6249987;22;20027;-79
2022/10/20 15:04:26;;;;;;;52.28;24.98;;;11.90;99.90;;;;;;6277518;22;20012;-83
2022/10/20 15:07:26;;;;;;;53.55;25.23;;;11.90;99.90;;;;;;6276178;22;20015;-79
2022/10/20 15:10:07;;;;;;;53.15;25.73;;;11.90;99.90;;;;;;6250198;22;20039;-76
2022/10/20 15:12:41;;;;;;;53.38;25.73;;;11.90;99.90;;;;;;6277472;22;20018;-80
2022/10/20 15:15:10;;;;;;;65.68;27.30;;;12.00;99.90;;;;;;6250461;22;20329;-81
2022/10/20 15:17:37;;;;;;;56.88;26.80;;;12.00;99.90;;;;;;6252007;22;20379;-80
2022/10/20 15:20:37;;;;;;;58.78;27.67;;;12.10;99.90;;;;;;6281282;22;20016;-81
2022/10/20 15:23:08;;;;;;;56.67;27.45;;;12.00;99.90;;;;;;6281018;22;20019;-78
2022/10/20 15:26:01;;;;;;;66.60;28.30;;;12.00;99.90;;;;;;6280980;22;20011;-77
2022/10/20 15:28:47;;;;;;;55.88;26.92;;;12.10;99.90;;;;;;6253416;22;20022;-78
2022/10/20 15:31:12;;;;;;;61.60;28.63;;;12.10;99.90;;;;;;6253878;22;20426;-79
2022/10/20 15:33:41;;;;;;;57.60;28.63;;;12.10;99.90;;;;;;6253530;22;20012;-79
2022/10/20 15:36:15;;;;;;;56.08;27.35;;;12.10;99.90;;;;;;6228111;22;20012;-78
2022/10/20 15:38:43;;;;;;;57.83;28.20;;;12.10;99.90;;;;;;6281229;22;20023;-75
2022/10/20 15:41:29;;;;;;;70.80;31.10;;;12.20;99.90;;;;;;6253133;22;20455;-77
2022/10/20 15:43:55;;;;;;;61.90;29.58;;;12.20;99.90;;;;;;6253741;22;20018;-79
2022/10/20 15:46:21;;;;;;;56.38;28.25;;;12.20;99.90;;;;;;6280883;22;20074;-75
2022/10/20 15:48:47;;;;;;;71.32;32.53;;;12.20;99.90;;;;;;6253207;22;20094;-77
2022/10/20 15:51:38;;;;;;;68.25;30.60;;;12.20;99.90;;;;;;6280635;22;20011;-82
2022/10/20 15:54:03;;;;;;;62.55;30.92;;;12.30;99.90;;;;;;6280588;22;20461;-76
2022/10/20 15:56:29;;;;;;;68.03;30.25;;;12.20;99.90;;;;;;6253280;22;20034;-77
2022/10/20 15:58:55;;;;;;;70.03;32.22;;;12.20;99.90;;;;;;6280874;22;20459;-80
2022/10/20 16:01:21;;;;;;;69.35;32.10;;;12.30;99.90;;;;;;6253274;22;20007;-79
2022/10/20 16:03:47;;;;;;;74.32;34.42;;;12.30;99.90;;;;;;6253241;22;20034;-85